Time;durP1;ratioP1;P1;durP2;ratioP2;P2;SDS_P1;SDS_P2;PMS_P1;PMS_P2;Temp;Humidity;BMP_temperature;BMP_pressure;BME280_temperature;BME280_humidity;BME280_pressure;Samples;Min_cycle;Max_cycle;Signal;HPM_P1;HPM_P2
2021/09/11 00:01:12;;;;;;;18.90;16.90;;;20.30;99.90;;;;;;5080091;28;20442;-70
2021/09/11 00:03:39;;;;;;;18.23;16.43;;;20.30;99.90;;;;;;5079549;28;20455;-70
2021/09/11 00:06:06;;;;;;;19.80;17.57;;;20.30;99.90;;;;;;5079410;28;20522;-70
2021/09/11 00:08:34;;;;;;;18.57;16.40;;;20.40;99.90;;;;;;5079407;28;20486;-70
2021/09/11 00:11:01;;;;;;;18.60;16.10;;;20.40;99.90;;;;;;5080418;28;20454;-70
2021/09/11 00:13:27;;;;;;;18.43;16.53;;;20.30;99.90;;;;;;5080143;28;20454;-70
2021/09/11 00:15:54;;;;;;;17.33;15.63;;;20.40;99.90;;;;;;5079425;28;20455;-71
2021/09/11 00:18:21;;;;;;;18.10;16.20;;;20.40;99.90;;;;;;5080397;28;20476;-70
2021/09/11 00:20:47;;;;;;;18.00;16.27;;;20.30;99.90;;;;;;5080125;28;20545;-70
2021/09/11 00:23:14;;;;;;;19.30;17.23;;;20.30;99.90;;;;;;5080311;28;20490;-70
2021/09/11 00:25:42;;;;;;;17.50;15.80;;;20.40;99.90;;;;;;5080947;28;20476;-71
2021/09/11 00:28:09;;;;;;;22.80;16.23;;;20.30;99.90;;;;;;5081345;28;20501;-71
2021/09/11 00:30:36;;;;;;;18.17;16.47;;;20.30;99.90;;;;;;5076903;28;20470;-71
2021/09/11 00:33:03;;;;;;;18.10;16.03;;;20.20;99.90;;;;;;5074493;28;20470;-71
2021/09/11 00:35:29;;;;;;;17.17;15.40;;;20.30;99.90;;;;;;5073988;28;20459;-71
2021/09/11 00:37:56;;;;;;;18.90;17.10;;;20.20;99.90;;;;;;5074105;28;20524;-71
2021/09/11 00:40:23;;;;;;;19.53;16.37;;;20.20;99.90;;;;;;5074551;28;20477;-71
2021/09/11 00:42:51;;;;;;;17.80;16.10;;;20.20;99.90;;;;;;5074376;28;20516;-70
2021/09/11 00:45:19;;;;;;;18.17;16.30;;;20.20;99.90;;;;;;5074617;28;20462;-71
2021/09/11 00:47:47;;;;;;;19.40;16.27;;;20.20;99.90;;;;;;5074241;28;20809;-70
2021/09/11 00:50:14;;;;;;;16.50;14.97;;;20.20;99.90;;;;;;5074389;28;20459;-71
2021/09/11 00:52:42;;;;;;;17.07;15.37;;;20.20;99.90;;;;;;5073719;28;20459;-71
2021/09/11 00:55:11;;;;;;;18.30;16.40;;;20.20;99.90;;;;;;5074367;28;20485;-71
2021/09/11 00:57:50;;;;;;;17.47;15.77;;;20.20;99.90;;;;;;5074342;28;20466;-70
2021/09/11 01:00:18;;;;;;;17.30;15.60;;;20.20;99.90;;;;;;5074395;28;20474;-70
2021/09/11 01:02:45;;;;;;;16.57;14.90;;;20.20;99.90;;;;;;5074315;28;20458;-70
2021/09/11 01:05:12;;;;;;;18.10;16.20;;;20.20;99.90;;;;;;5073522;28;20492;-70
2021/09/11 01:07:41;;;;;;;17.33;15.63;;;20.10;99.90;;;;;;5073898;28;20482;-70
2021/09/11 01:10:09;;;;;;;17.40;15.70;;;20.20;99.90;;;;;;5074069;28;20469;-70
2021/09/11 01:12:36;;;;;;;17.87;16.07;;;20.10;99.90;;;;;;5073776;28;20458;-70
2021/09/11 01:15:04;;;;;;;20.27;16.53;;;20.10;99.90;;;;;;5073784;28;20473;-72
2021/09/11 01:17:32;;;;;;;16.80;15.07;;;20.00;99.90;;;;;;5074757;28;20462;-70
2021/09/11 01:19:59;;;;;;;17.00;15.40;;;20.10;99.90;;;;;;5073907;28;20565;-70
2021/09/11 01:22:26;;;;;;;18.40;16.50;;;20.00;99.90;;;;;;5073827;28;20458;-71
2021/09/11 01:24:55;;;;;;;19.60;17.57;;;20.00;99.90;;;;;;5073589;28;20494;-71
2021/09/11 01:27:23;;;;;;;20.20;16.50;;;20.00;99.90;;;;;;5073896;28;20552;-71
2021/09/11 01:29:54;;;;;;;19.90;17.57;;;20.00;99.90;;;;;;5073848;28;20454;-71
2021/09/11 01:32:21;;;;;;;19.47;17.37;;;20.00;99.90;;;;;;5076410;28;20520;-71
2021/09/11 01:34:48;;;;;;;18.50;16.50;;;20.00;99.90;;;;;;5077249;28;20493;-70
2021/09/11 01:37:17;;;;;;;19.10;17.30;;;20.00;99.90;;;;;;5077124;28;20450;-71
2021/09/11 01:39:47;;;;;;;20.67;17.77;;;20.00;99.90;;;;;;5077355;28;20458;-71
2021/09/11 01:42:18;;;;;;;22.67;16.83;;;19.90;99.90;;;;;;5077077;28;20487;-71
2021/09/11 01:44:46;;;;;;;18.70;16.87;;;19.90;99.90;;;;;;5077193;28;20513;-71
2021/09/11 01:47:13;;;;;;;18.77;16.90;;;19.90;99.90;;;;;;5076752;28;20847;-71
2021/09/11 01:49:40;;;;;;;18.63;16.73;;;19.90;99.90;;;;;;5077308;28;20546;-71
2021/09/11 01:52:07;;;;;;;21.03;17.37;;;19.90;99.90;;;;;;5077112;28;20580;-71
2021/09/11 01:54:34;;;;;;;19.20;16.67;;;19.80;99.90;;;;;;5077069;28;21000;-71
2021/09/11 01:57:01;;;;;;;18.70;16.80;;;19.80;99.90;;;;;;5076932;28;20519;-71
2021/09/11 01:59:29;;;;;;;19.33;17.10;;;19.80;99.90;;;;;;5077107;28;20451;-70
2021/09/11 02:01:55;;;;;;;18.00;16.20;;;19.80;99.90;;;;;;5077049;28;20455;-70
2021/09/11 02:04:22;;;;;;;18.97;17.10;;;19.80;99.90;;;;;;5076977;28;20466;-70
2021/09/11 02:06:49;;;;;;;18.70;16.70;;;19.80;99.90;;;;;;5076961;28;20467;-70
2021/09/11 02:09:15;;;;;;;19.75;17.75;;;19.70;99.90;;;;;;5076955;28;20478;-70
2021/09/11 02:11:42;;;;;;;19.60;15.83;;;19.80;99.90;;;;;;5076696;28;20204;-70
2021/09/11 02:14:09;;;;;;;18.30;16.50;;;19.80;99.90;;;;;;5076613;28;20466;-70
2021/09/11 02:16:37;;;;;;;21.23;17.50;;;19.80;99.90;;;;;;5076521;28;20515;-70
2021/09/11 02:19:04;;;;;;;18.90;17.00;;;19.70;99.90;;;;;;5076719;28;20512;-71
2021/09/11 02:21:31;;;;;;;19.23;17.20;;;19.70;99.90;;;;;;5076328;28;20454;-69
2021/09/11 02:23:57;;;;;;;18.33;16.53;;;19.70;99.90;;;;;;5076080;28;20478;-69
2021/09/11 02:26:27;;;;;;;17.30;15.50;;;19.60;99.90;;;;;;5076209;28;20565;-70
2021/09/11 02:28:56;;;;;;;19.13;17.20;;;19.60;99.90;;;;;;5076493;28;20983;-70
2021/09/11 02:31:23;;;;;;;18.50;16.37;;;19.60;99.90;;;;;;5076411;28;20458;-70
2021/09/11 02:33:51;;;;;;;22.60;16.77;;;19.60;99.90;;;;;;5076290;28;20798;-70
2021/09/11 02:36:18;;;;;;;19.70;17.50;;;19.50;99.90;;;;;;5076325;28;20455;-70
2021/09/11 02:38:45;;;;;;;18.40;16.50;;;19.50;99.90;;;;;;5076278;28;20466;-70
2021/09/11 02:41:12;;;;;;;19.30;17.40;;;19.50;99.90;;;;;;5075753;28;20917;-70
2021/09/11 02:43:39;;;;;;;18.97;17.00;;;19.50;99.90;;;;;;5076218;28;20459;-70
2021/09/11 02:46:06;;;;;;;18.47;16.70;;;19.50;99.90;;;;;;5075730;28;20450;-70
2021/09/11 02:48:32;;;;;;;20.37;17.77;;;19.50;99.90;;;;;;5076105;28;20798;-69
2021/09/11 02:51:03;;;;;;;19.27;17.43;;;19.40;99.90;;;;;;5075810;28;20497;-70
2021/09/11 02:53:30;;;;;;;20.07;17.97;;;19.40;99.90;;;;;;5076108;28;20528;-70
2021/09/11 02:55:56;;;;;;;20.00;17.90;;;19.40;99.90;;;;;;5075956;28;20469;-70
2021/09/11 02:58:24;;;;;;;19.97;17.97;;;19.40;99.90;;;;;;5075500;28;20455;-70
2021/09/11 03:00:52;;;;;;;23.43;17.20;;;19.40;99.90;;;;;;5075950;28;20528;-69
2021/09/11 03:03:20;;;;;;;20.70;18.80;;;19.40;99.90;;;;;;5076071;28;20474;-69
2021/09/11 03:05:46;;;;;;;20.67;18.47;;;19.30;99.90;;;;;;5075482;28;20469;-70
2021/09/11 03:08:15;;;;;;;24.83;18.57;;;19.30;99.90;;;;;;5075758;28;20567;-71
2021/09/11 03:10:43;;;;;;;20.27;18.10;;;19.30;99.90;;;;;;5075763;28;20533;-70
2021/09/11 03:13:10;;;;;;;20.13;18.00;;;19.30;99.90;;;;;;5075180;28;20454;-71
2021/09/11 03:15:37;;;;;;;23.23;19.83;;;19.30;99.90;;;;;;5075115;28;20466;-70
2021/09/11 03:18:03;;;;;;;19.80;17.90;;;19.20;99.90;;;;;;5075083;28;20455;-70
2021/09/11 03:20:30;;;;;;;20.77;18.63;;;19.20;99.90;;;;;;5075393;28;20465;-70
2021/09/11 03:22:57;;;;;;;20.87;18.37;;;19.20;99.90;;;;;;5075165;28;20462;-70
2021/09/11 03:25:25;;;;;;;19.77;17.67;;;19.20;99.90;;;;;;5075294;28;20442;-70
2021/09/11 03:27:52;;;;;;;21.03;18.90;;;19.30;99.90;;;;;;5075092;28;20497;-71
2021/09/11 03:30:21;;;;;;;20.60;18.40;;;19.30;99.90;;;;;;5075275;28;20477;-71
2021/09/11 03:32:48;;;;;;;21.90;19.00;;;19.30;99.90;;;;;;5075044;28;20760;-71
2021/09/11 03:35:15;;;;;;;20.53;18.43;;;19.30;99.90;;;;;;5075098;28;20459;-71
2021/09/11 03:37:42;;;;;;;21.87;19.67;;;19.30;99.90;;;;;;5075018;28;20532;-71
2021/09/11 03:40:10;;;;;;;20.63;18.63;;;19.30;99.90;;;;;;5074982;28;20570;-71
2021/09/11 03:42:38;;;;;;;24.73;19.60;;;19.20;99.90;;;;;;5074612;28;20988;-71
2021/09/11 03:45:05;;;;;;;21.50;19.30;;;19.20;99.90;;;;;;5074868;28;20512;-69
2021/09/11 03:47:32;;;;;;;21.20;19.00;;;19.20;99.90;;;;;;5074434;28;20536;-71
2021/09/11 03:49:58;;;;;;;20.03;18.00;;;19.20;99.90;;;;;;5074776;28;20796;-70
2021/09/11 03:52:25;;;;;;;20.73;18.63;;;19.20;99.90;;;;;;5074919;28;20459;-70
2021/09/11 03:54:52;;;;;;;19.83;17.83;;;19.20;99.90;;;;;;5074442;28;20825;-70
2021/09/11 03:57:19;;;;;;;20.53;18.37;;;19.20;99.90;;;;;;5074726;28;20461;-70
2021/09/11 03:59:47;;;;;;;21.30;18.20;;;19.20;99.90;;;;;;5074668;28;20472;-70
2021/09/11 04:02:13;;;;;;;21.00;18.90;;;19.20;99.90;;;;;;5074509;28;20937;-70
2021/09/11 04:04:40;;;;;;;21.47;17.90;;;19.20;99.90;;;;;;5075010;28;20466;-70
2021/09/11 04:07:07;;;;;;;19.30;17.30;;;19.20;99.90;;;;;;5074494;28;20458;-71
2021/09/11 04:09:33;;;;;;;20.87;18.73;;;19.20;99.90;;;;;;5074254;28;20486;-69
2021/09/11 04:12:00;;;;;;;20.07;17.40;;;19.20;99.90;;;;;;5074752;28;20527;-70
2021/09/11 04:14:29;;;;;;;21.83;19.60;;;19.20;99.90;;;;;;5074404;28;20462;-70
2021/09/11 04:16:57;;;;;;;20.00;17.87;;;19.20;99.90;;;;;;5074375;28;20815;-70
2021/09/11 04:19:24;;;;;;;22.00;18.73;;;19.20;99.90;;;;;;5074135;28;20447;-70
2021/09/11 04:21:51;;;;;;;19.70;17.60;;;19.20;99.90;;;;;;5074170;28;20469;-70
2021/09/11 04:24:17;;;;;;;20.77;18.77;;;19.20;99.90;;;;;;5073881;28;20482;-71
2021/09/11 04:26:46;;;;;;;18.23;16.40;;;19.20;99.90;;;;;;5074427;28;20458;-71
2021/09/11 04:29:13;;;;;;;21.73;19.50;;;19.20;99.90;;;;;;5074225;28;20477;-71
2021/09/11 04:31:39;;;;;;;21.07;18.93;;;19.20;99.90;;;;;;5073911;28;20455;-71
2021/09/11 04:34:10;;;;;;;19.90;18.00;;;19.20;99.90;;;;;;5074380;28;20932;-70
2021/09/11 04:36:37;;;;;;;21.20;19.00;;;19.20;99.90;;;;;;5074338;28;20456;-70
2021/09/11 04:39:04;;;;;;;19.57;17.50;;;19.20;99.90;;;;;;5074186;28;20458;-70
2021/09/11 04:41:35;;;;;;;20.10;17.60;;;19.20;99.90;;;;;;5074727;28;20814;-71
2021/09/11 04:44:02;;;;;;;23.10;17.70;;;19.20;99.90;;;;;;5074162;28;20446;-70
2021/09/11 04:46:28;;;;;;;23.43;19.47;;;19.20;99.90;;;;;;5074508;28;20466;-70
2021/09/11 04:48:55;;;;;;;21.73;19.53;;;19.20;99.90;;;;;;5074263;28;20544;-70
2021/09/11 04:51:25;;;;;;;21.00;18.60;;;19.20;99.90;;;;;;5074670;28;20463;-70
2021/09/11 04:53:52;;;;;;;20.27;18.27;;;19.20;99.90;;;;;;5074023;28;20461;-70
2021/09/11 04:56:20;;;;;;;22.73;18.93;;;19.20;99.90;;;;;;5074231;28;20588;-70
2021/09/11 04:58:47;;;;;;;20.70;18.57;;;19.20;99.90;;;;;;5074153;28;20462;-70
2021/09/11 05:01:13;;;;;;;20.73;18.53;;;19.20;99.90;;;;;;5073951;28;20945;-70
2021/09/11 05:03:40;;;;;;;19.70;17.67;;;19.20;99.90;;;;;;5074000;28;20515;-70
2021/09/11 05:06:07;;;;;;;21.40;19.23;;;19.30;99.90;;;;;;5075418;28;20519;-70
2021/09/11 05:08:37;;;;;;;20.00;17.90;;;19.30;99.90;;;;;;5078129;28;20810;-69
2021/09/11 05:11:07;;;;;;;19.90;17.80;;;19.40;99.90;;;;;;5079031;28;20443;-69
2021/09/11 05:13:34;;;;;;;20.67;18.47;;;19.40;99.90;;;;;;5080717;28;20488;-69
2021/09/11 05:16:01;;;;;;;20.13;18.13;;;19.50;99.90;;;;;;5080054;28;20469;-70
2021/09/11 05:18:27;;;;;;;19.60;17.60;;;19.50;99.90;;;;;;5080190;28;20509;-70
2021/09/11 05:20:54;;;;;;;21.57;18.80;;;19.50;99.90;;;;;;5081047;28;20461;-70
2021/09/11 05:23:21;;;;;;;22.20;18.27;;;19.50;99.90;;;;;;5080263;28;20475;-71
2021/09/11 05:25:49;;;;;;;20.07;17.97;;;19.60;99.90;;;;;;5079531;28;20546;-70
2021/09/11 05:28:16;;;;;;;22.60;17.40;;;19.60;99.90;;;;;;5079493;28;20489;-70
2021/09/11 05:30:43;;;;;;;20.77;18.57;;;19.60;99.90;;;;;;5078492;28;20776;-70
2021/09/11 05:33:09;;;;;;;21.17;17.80;;;19.60;99.90;;;;;;5078766;28;20458;-71
2021/09/11 05:35:36;;;;;;;22.47;17.93;;;19.70;99.90;;;;;;5078711;28;20907;-70
2021/09/11 05:38:03;;;;;;;20.03;18.10;;;19.70;99.90;;;;;;5078436;28;20461;-70
2021/09/11 05:40:29;;;;;;;20.93;18.63;;;19.80;99.90;;;;;;5078484;28;20512;-71
2021/09/11 05:42:57;;;;;;;21.37;19.17;;;19.80;99.90;;;;;;5078964;28;20520;-71
2021/09/11 05:45:24;;;;;;;23.60;18.60;;;19.80;99.90;;;;;;5078137;28;20495;-71
2021/09/11 05:47:51;;;;;;;19.53;17.63;;;19.90;99.90;;;;;;5078075;28;20463;-71
2021/09/11 05:50:18;;;;;;;20.63;18.00;;;19.90;99.90;;;;;;5077412;28;20481;-71
2021/09/11 05:52:44;;;;;;;20.00;17.27;;;20.00;99.90;;;;;;5078665;28;20457;-71
2021/09/11 05:55:15;;;;;;;18.60;16.30;;;20.00;99.90;;;;;;5081795;28;20458;-71
2021/09/11 05:57:44;;;;;;;18.07;16.23;;;20.00;99.90;;;;;;5080621;28;20443;-71
2021/09/11 06:00:13;;;;;;;18.60;16.70;;;20.10;99.90;;;;;;5078371;28;20946;-71
2021/09/11 06:02:40;;;;;;;18.13;16.33;;;20.10;99.90;;;;;;5078147;28;20470;-70
2021/09/11 06:05:07;;;;;;;18.57;16.60;;;20.20;99.90;;;;;;5077559;28;20490;-70
2021/09/11 06:07:34;;;;;;;18.70;16.70;;;20.20;99.90;;;;;;5078421;28;20451;-70
2021/09/11 06:10:01;;;;;;;19.27;16.80;;;20.20;99.90;;;;;;5077172;28;20808;-70
2021/09/11 06:12:28;;;;;;;22.80;16.43;;;20.20;99.90;;;;;;5077142;28;20464;-71
2021/09/11 06:14:55;;;;;;;18.40;16.53;;;20.20;99.90;;;;;;5077324;28;20459;-70
2021/09/11 06:17:25;;;;;;;18.63;16.13;;;20.20;99.90;;;;;;5077019;28;20470;-70
2021/09/11 06:19:57;;;;;;;18.17;16.23;;;20.10;99.90;;;;;;5076940;28;20439;-70
2021/09/11 06:22:23;;;;;;;18.57;16.67;;;20.10;99.90;;;;;;5077408;28;20956;-70
2021/09/11 06:24:50;;;;;;;18.90;16.80;;;20.10;99.90;;;;;;5076982;28;20501;-71
2021/09/11 06:27:18;;;;;;;18.27;16.27;;;20.10;99.90;;;;;;5077566;28;20454;-70
2021/09/11 06:29:45;;;;;;;17.80;16.10;;;20.10;99.90;;;;;;5076855;28;20971;-69
2021/09/11 06:32:12;;;;;;;17.87;16.07;;;20.20;99.90;;;;;;5077060;28;20845;-69
2021/09/11 06:34:40;;;;;;;17.07;15.27;;;20.20;99.90;;;;;;5077528;28;20917;-70
2021/09/11 06:37:06;;;;;;;18.20;16.30;;;20.20;99.90;;;;;;5077439;28;20462;-70
2021/09/11 06:39:33;;;;;;;18.07;16.37;;;20.20;99.90;;;;;;5076923;28;20829;-70
2021/09/11 06:42:00;;;;;;;17.73;15.93;;;20.30;99.90;;;;;;5078767;28;20462;-70
2021/09/11 06:44:26;;;;;;;17.37;15.60;;;20.30;99.90;;;;;;5079334;28;20512;-70
2021/09/11 06:46:53;;;;;;;16.90;15.20;;;20.30;99.90;;;;;;5078552;28;20463;-70
2021/09/11 06:49:20;;;;;;;16.80;15.10;;;20.30;99.90;;;;;;5079686;28;20551;-70
2021/09/11 06:51:48;;;;;;;19.43;14.27;;;20.40;99.90;;;;;;5079385;28;20485;-70
2021/09/11 06:54:15;;;;;;;16.13;14.50;;;20.40;99.90;;;;;;5079875;28;20845;-70
2021/09/11 06:56:41;;;;;;;17.50;15.70;;;20.40;99.90;;;;;;5078414;28;20459;-70
2021/09/11 06:59:08;;;;;;;18.80;15.97;;;20.50;99.90;;;;;;5078765;28;20933;-70
2021/09/11 07:01:34;;;;;;;16.10;14.40;;;20.60;99.90;;;;;;5080334;28;20834;-70
2021/09/11 07:04:01;;;;;;;16.47;14.77;;;20.70;99.90;;;;;;5076580;28;20462;-70
2021/09/11 07:06:28;;;;;;;18.03;15.00;;;20.80;99.90;;;;;;5075763;28;20553;-70
2021/09/11 07:08:56;;;;;;;16.30;14.60;;;20.90;99.90;;;;;;5075671;28;20508;-70
2021/09/11 07:11:22;;;;;;;17.50;14.70;;;21.00;99.90;;;;;;5075800;28;20914;-71
2021/09/11 07:13:49;;;;;;;16.13;14.43;;;21.00;99.90;;;;;;5075259;28;20458;-71
2021/09/11 07:16:16;;;;;;;17.47;15.47;;;21.10;99.90;;;;;;5075127;28;20919;-71
2021/09/11 07:18:46;;;;;;;16.30;14.00;;;21.10;99.90;;;;;;5075584;28;20455;-70
2021/09/11 07:21:14;;;;;;;17.77;13.50;;;21.10;99.90;;;;;;5075027;28;20459;-71
2021/09/11 07:23:41;;;;;;;16.60;14.90;;;21.10;99.90;;;;;;5075026;28;20532;-70
2021/09/11 07:26:18;;;;;;;15.97;14.37;;;21.10;99.90;;;;;;5075380;28;20516;-71
2021/09/11 07:28:45;;;;;;;16.63;14.90;;;21.20;99.90;;;;;;5074508;28;20466;-70
2021/09/11 07:31:12;;;;;;;16.00;14.30;;;21.20;99.90;;;;;;5075210;28;20771;-70
2021/09/11 07:33:38;;;;;;;15.20;13.60;;;21.30;99.90;;;;;;5075113;28;20829;-70
2021/09/11 07:36:07;;;;;;;17.20;14.03;;;21.30;99.90;;;;;;5074940;28;20459;-70
2021/09/11 07:38:34;;;;;;;16.67;13.40;;;21.30;99.90;;;;;;5074828;28;20927;-70
2021/09/11 07:41:01;;;;;;;16.20;13.33;;;21.30;99.90;;;;;;5074637;28;20454;-70
2021/09/11 07:43:29;;;;;;;15.27;13.77;;;21.40;99.90;;;;;;5075177;28;20461;-70
2021/09/11 07:45:56;;;;;;;22.83;14.10;;;21.40;99.90;;;;;;5074934;28;20851;-70
2021/09/11 07:48:23;;;;;;;16.07;14.40;;;21.30;99.90;;;;;;5075092;28;20454;-70
2021/09/11 07:50:50;;;;;;;15.07;13.67;;;21.30;99.90;;;;;;5074670;28;20492;-69
2021/09/11 07:53:17;;;;;;;15.67;14.07;;;21.20;99.90;;;;;;5074775;28;20470;-69
2021/09/11 07:55:44;;;;;;;15.23;13.50;;;21.10;99.90;;;;;;5074773;28;20474;-70
2021/09/11 07:58:12;;;;;;;17.43;15.53;;;21.00;99.90;;;;;;5074503;28;20458;-70
2021/09/11 08:00:40;;;;;;;16.60;14.87;;;21.00;99.90;;;;;;5074910;28;20972;-70
2021/09/11 08:03:07;;;;;;;18.00;16.10;;;20.80;99.90;;;;;;5074614;28;20465;-70
2021/09/11 08:05:33;;;;;;;19.27;17.30;;;20.80;99.90;;;;;;5074592;28;20482;-70
2021/09/11 08:08:00;;;;;;;22.00;18.40;;;20.70;99.90;;;;;;5074174;28;20904;-70
2021/09/11 08:10:27;;;;;;;22.37;19.13;;;20.50;99.90;;;;;;5074495;28;20482;-70
2021/09/11 08:12:54;;;;;;;22.10;18.63;;;20.40;99.90;;;;;;5074532;28;20458;-70
2021/09/11 08:15:21;;;;;;;21.67;18.90;;;20.30;99.90;;;;;;5074391;28;20538;-70
2021/09/11 08:17:49;;;;;;;23.50;19.83;;;20.30;99.90;;;;;;5074150;28;20458;-70
2021/09/11 08:20:17;;;;;;;20.17;17.97;;;20.30;99.90;;;;;;5074846;28;20451;-70
2021/09/11 08:22:44;;;;;;;21.20;19.00;;;20.30;99.90;;;;;;5074507;28;20485;-70
2021/09/11 08:25:12;;;;;;;21.20;19.00;;;20.40;99.90;;;;;;5074029;28;20787;-70
2021/09/11 08:27:38;;;;;;;22.20;18.73;;;20.40;99.90;;;;;;5074749;28;20535;-70
2021/09/11 08:30:06;;;;;;;20.90;17.83;;;20.50;99.90;;;;;;5074229;28;20482;-70
2021/09/11 08:32:35;;;;;;;22.73;18.33;;;20.50;99.90;;;;;;5074658;28;20797;-70
2021/09/11 08:35:04;;;;;;;20.73;17.37;;;20.50;99.90;;;;;;5074197;28;20455;-70
2021/09/11 08:37:30;;;;;;;18.07;16.17;;;20.60;99.90;;;;;;5074752;28;20537;-70
2021/09/11 08:39:57;;;;;;;21.03;15.97;;;20.60;99.90;;;;;;5075036;28;20458;-70
2021/09/11 08:42:25;;;;;;;15.53;14.00;;;20.70;99.90;;;;;;5078527;28;20454;-70
2021/09/11 08:44:51;;;;;;;14.30;12.90;;;20.70;99.90;;;;;;5078479;28;20752;-70
2021/09/11 08:47:18;;;;;;;15.13;13.60;;;20.80;99.90;;;;;;5078800;28;20756;-70
2021/09/11 08:49:45;;;;;;;14.77;13.17;;;20.80;99.90;;;;;;5078845;28;20490;-70
2021/09/11 08:52:13;;;;;;;15.60;14.00;;;20.90;99.90;;;;;;5078321;28;20462;-70
2021/09/11 08:54:40;;;;;;;16.37;13.37;;;21.00;99.90;;;;;;5078096;28;20512;-70
2021/09/11 08:57:21;;;;;;;14.40;13.00;;;21.00;99.90;;;;;;5078203;28;20455;-70
2021/09/11 08:59:48;;;;;;;15.13;13.60;;;21.10;99.90;;;;;;5077761;28;20438;-70
2021/09/11 09:02:15;;;;;;;14.00;12.70;;;21.20;99.90;;;;;;5077963;28;20463;-70
2021/09/11 09:04:50;;;;;;;14.87;11.50;;;21.30;99.90;;;;;;5077923;28;20512;-70
2021/09/11 09:07:40;;;;;;;13.47;12.03;;;21.40;99.90;;;;;;5078457;28;20533;-69
2021/09/11 09:10:10;;;;;;;14.23;12.40;;;21.60;99.90;;;;;;5080143;28;20462;-76
2021/09/11 09:12:39;;;;;;;12.50;11.30;;;21.70;99.90;;;;;;5079252;28;20454;-74
2021/09/11 09:15:09;;;;;;;14.13;12.63;;;21.70;99.90;;;;;;5079383;28;20450;-75
2021/09/11 09:17:41;;;;;;;13.90;12.07;;;21.80;99.90;;;;;;5078931;28;20960;-76
2021/09/11 09:20:13;;;;;;;11.93;10.83;;;21.90;99.90;;;;;;5078716;28;20533;-75
2021/09/11 09:22:41;;;;;;;13.00;11.70;;;21.90;99.90;;;;;;5080183;28;20461;-75
2021/09/11 09:25:21;;;;;;;13.10;11.70;;;22.00;99.90;;;;;;5077640;28;20551;-75
2021/09/11 09:27:50;;;;;;;11.97;10.87;;;22.00;99.90;;;;;;5077905;28;20530;-75
2021/09/11 09:30:20;;;;;;;12.30;11.00;;;22.00;99.90;;;;;;5077434;28;20486;-76
2021/09/11 09:32:50;;;;;;;11.73;10.53;;;22.00;99.90;;;;;;5077649;28;20454;-76
2021/09/11 09:35:22;;;;;;;11.87;10.53;;;22.00;99.90;;;;;;5077534;28;20533;-76
2021/09/11 09:38:02;;;;;;;11.33;9.50;;;22.00;99.90;;;;;;5077991;28;20537;-75
2021/09/11 09:40:38;;;;;;;11.07;10.17;;;22.00;99.90;;;;;;5078915;28;20443;-76
2021/09/11 09:43:05;;;;;;;11.13;9.80;;;22.10;99.90;;;;;;5077648;28;20455;-76
2021/09/11 09:45:34;;;;;;;11.27;10.17;;;22.20;99.90;;;;;;5077756;28;20481;-76
2021/09/11 09:48:03;;;;;;;13.00;11.17;;;22.30;99.90;;;;;;5077663;28;20469;-76
2021/09/11 09:50:31;;;;;;;11.57;9.83;;;22.40;99.90;;;;;;5077017;28;21004;-76
2021/09/11 09:53:01;;;;;;;12.57;10.90;;;22.40;99.90;;;;;;5077036;28;20542;-76
2021/09/11 09:55:28;;;;;;;11.33;10.33;;;22.30;99.90;;;;;;5077952;28;20470;-76
2021/09/11 09:57:58;;;;;;;10.10;9.20;;;22.20;99.90;;;;;;5078266;28;20458;-76
2021/09/11 10:00:25;;;;;;;12.13;10.93;;;22.20;99.90;;;;;;5076871;28;20834;-74
2021/09/11 10:02:52;;;;;;;10.63;9.73;;;22.30;99.90;;;;;;5076528;28;20872;-74
2021/09/11 10:05:21;;;;;;;10.20;9.30;;;22.40;99.90;;;;;;5076750;28;20458;-74
2021/09/11 10:07:59;;;;;;;11.57;10.47;;;22.50;99.90;;;;;;5077204;28;20494;-74
2021/09/11 10:10:32;;;;;;;10.30;9.30;;;22.70;99.90;;;;;;5076690;28;20491;-75
2021/09/11 10:13:07;;;;;;;9.80;8.83;;;23.00;99.90;;;;;;5077272;28;20455;-75
2021/09/11 10:15:36;;;;;;;9.07;8.27;;;23.20;99.90;;;;;;5076613;28;20465;-74
2021/09/11 10:18:05;;;;;;;9.00;8.10;;;23.40;99.90;;;;;;5077019;28;20760;-75
2021/09/11 10:21:05;;;;;;;10.73;9.73;;;23.40;99.90;;;;;;5076858;28;20459;-75
2021/09/11 10:23:31;;;;;;;11.73;10.63;;;23.40;99.90;;;;;;5076716;28;20481;-74
2021/09/11 10:25:59;;;;;;;12.80;11.50;;;23.30;99.90;;;;;;5076475;28;20907;-75
2021/09/11 10:28:29;;;;;;;12.30;11.20;;;23.20;99.90;;;;;;5076354;28;20791;-74
2021/09/11 10:31:04;;;;;;;12.93;11.73;;;23.00;99.90;;;;;;5076175;28;20483;-74
2021/09/11 10:33:41;;;;;;;12.13;10.93;;;23.00;99.90;;;;;;5076147;28;20799;-73
2021/09/11 10:36:13;;;;;;;11.47;10.57;;;23.00;99.90;;;;;;5076225;28;20439;-73
2021/09/11 10:38:42;;;;;;;12.77;11.63;;;23.00;99.90;;;;;;5076212;28;20466;-73
2021/09/11 10:41:13;;;;;;;13.03;11.90;;;23.10;99.90;;;;;;5075689;28;20464;-73
2021/09/11 10:44:05;;;;;;;11.73;10.63;;;23.20;99.90;;;;;;5076809;28;20450;-73
2021/09/11 10:46:48;;;;;;;12.57;11.33;;;23.30;99.90;;;;;;5075658;28;20523;-74
2021/09/11 10:49:33;;;;;;;10.60;9.57;;;23.40;99.90;;;;;;5075792;28;20462;-74
2021/09/11 10:52:04;;;;;;;11.20;10.20;;;23.40;99.90;;;;;;5075465;28;20502;-74
2021/09/11 10:54:33;;;;;;;9.70;8.73;;;23.60;99.90;;;;;;5075862;28;20779;-74
2021/09/11 10:57:14;;;;;;;9.20;8.40;;;23.60;99.90;;;;;;5075401;28;20876;-73
2021/09/11 10:59:42;;;;;;;10.07;9.27;;;23.70;99.90;;;;;;5076326;28;20781;-73
2021/09/11 11:02:21;;;;;;;9.43;8.73;;;23.80;99.90;;;;;;5075585;28;20463;-74
2021/09/11 11:05:02;;;;;;;9.80;9.00;;;23.70;99.90;;;;;;5074620;28;20875;-74
2021/09/11 11:07:30;;;;;;;8.10;7.37;;;23.70;99.90;;;;;;5075325;28;20737;-73
2021/09/11 11:10:00;;;;;;;8.50;7.80;;;23.70;99.90;;;;;;5075415;28;20954;-74
2021/09/11 11:12:30;;;;;;;8.65;7.88;;;23.70;99.90;;;;;;5075340;28;20457;-74
2021/09/11 11:14:59;;;;;;;7.17;6.27;;;23.80;99.90;;;;;;5075270;28;20196;-74
2021/09/11 11:17:27;;;;;;;7.13;6.53;;;24.00;99.90;;;;;;5074963;28;20909;-74
2021/09/11 11:19:55;;;;;;;6.50;6.00;;;24.20;99.90;;;;;;5074982;28;20903;-74
2021/09/11 11:22:31;;;;;;;7.13;6.53;;;24.30;99.90;;;;;;5075154;28;20463;-75
2021/09/11 11:24:58;;;;;;;6.77;6.17;;;24.30;99.90;;;;;;5075076;28;20946;-74
2021/09/11 11:27:30;;;;;;;6.27;5.87;;;24.30;99.90;;;;;;5075092;28;20467;-74
2021/09/11 11:29:59;;;;;;;7.80;5.97;;;24.30;99.90;;;;;;5075031;28;20773;-74
2021/09/11 11:32:27;;;;;;;8.00;5.70;;;24.50;99.90;;;;;;5074670;28;20458;-75
2021/09/11 11:34:59;;;;;;;5.60;5.20;;;24.90;99.90;;;;;;5075265;28;20824;-74
2021/09/11 11:37:27;;;;;;;5.77;5.23;;;25.30;99.90;;;;;;5074881;28;20443;-74
2021/09/11 11:39:54;;;;;;;5.50;5.00;;;25.50;99.90;;;;;;5074763;28;20505;-73
2021/09/11 11:42:23;;;;;;;5.73;5.27;;;25.70;99.90;;;;;;5074534;28;20545;-73
2021/09/11 11:44:54;;;;;;;6.10;5.60;;;25.70;99.90;;;;;;5074859;28;20569;-74
2021/09/11 11:47:31;;;;;;;5.80;5.30;;;25.60;99.90;;;;;;5074804;28;20464;-74
2021/09/11 11:49:58;;;;;;;5.50;5.10;;;25.60;99.90;;;;;;5073912;28;20442;-74
2021/09/11 11:52:26;;;;;;;5.37;4.77;;;25.60;99.90;;;;;;5074260;28;20469;-74
2021/09/11 11:54:53;;;;;;;7.83;4.50;;;26.10;99.90;;;;;;5074302;28;20474;-74
2021/09/11 11:57:21;;;;;;;4.67;4.30;;;26.80;99.90;;;;;;5074610;28;20773;-74
2021/09/11 11:59:59;;;;;;;4.30;3.90;;;27.40;99.90;;;;;;5074395;28;20462;-74
2021/09/11 12:02:30;;;;;;;4.70;4.30;;;27.50;99.90;;;;;;5074780;28;20446;-74
2021/09/11 12:05:16;;;;;;;3.90;3.60;;;27.70;99.90;;;;;;5074747;28;20470;-74
2021/09/11 12:07:52;;;;;;;4.23;3.83;;;27.80;99.90;;;;;;5074383;28;20449;-74
2021/09/11 12:10:19;;;;;;;3.90;3.50;;;28.40;99.90;;;;;;5074393;28;20601;-74
2021/09/11 12:12:47;;;;;;;2.93;2.70;;;29.10;99.90;;;;;;5074444;28;20462;-75
2021/09/11 12:15:19;;;;;;;3.03;2.83;;;29.90;99.90;;;;;;5073954;28;20527;-74
2021/09/11 12:18:00;;;;;;;4.97;2.90;;;30.60;99.90;;;;;;5074250;28;20454;-76
2021/09/11 12:20:29;;;;;;;4.20;3.00;;;31.30;99.90;;;;;;5074413;28;20446;-74
2021/09/11 12:23:13;;;;;;;3.50;3.20;;;31.40;99.90;;;;;;5074368;28;20528;-74
2021/09/11 12:26:03;;;;;;;3.80;3.50;;;31.20;99.90;;;;;;5074093;28;20466;-74
2021/09/11 12:28:42;;;;;;;3.50;3.23;;;31.40;99.90;;;;;;5069706;28;20490;-74
2021/09/11 12:31:22;;;;;;;4.50;3.03;;;31.90;99.90;;;;;;5074162;28;20474;-74
2021/09/11 12:33:50;;;;;;;3.60;2.90;;;32.80;99.90;;;;;;5074363;28;20481;-74
2021/09/11 12:36:28;;;;;;;3.00;2.80;;;33.70;99.90;;;;;;5074194;28;20458;-74
2021/09/11 12:38:57;;;;;;;3.07;2.87;;;33.50;99.90;;;;;;5074307;28;20446;-74